Time;durP1;ratioP1;P1;durP2;ratioP2;P2;SDS_P1;SDS_P2;PMS_P1;PMS_P2;Temp;Humidity;BMP_temperature;BMP_pressure;BME280_temperature;BME280_humidity;BME280_pressure;Samples;Min_cycle;Max_cycle;Signal;HPM_P1;HPM_P2
2022/12/18 00:01:33;;;;;;;61.13;31.98;;;;;;;-1.32;74.01;101938.59;5077306;28;20138;-72
2022/12/18 00:04:05;;;;;;;63.50;32.72;;;;;;;-1.29;73.62;101929.25;5098838;28;20055;-72
2022/12/18 00:06:33;;;;;;;65.40;32.17;;;;;;;-1.09;73.42;101930.09;5093610;28;20051;-73
2022/12/18 00:09:02;;;;;;;63.55;31.25;;;;;;;-1.22;73.38;101935.50;5090146;28;20043;-73
2022/12/18 00:11:31;;;;;;;60.70;32.42;;;;;;;-1.16;73.04;101937.38;5103574;28;20051;-73
2022/12/18 00:13:59;;;;;;;63.45;30.33;;;;;;;-1.08;72.36;101931.75;5096327;28;20051;-71
2022/12/18 00:16:29;;;;;;;62.63;32.25;;;;;;;-1.38;73.39;101927.78;5076355;28;20052;-71
2022/12/18 00:18:57;;;;;;;57.08;30.60;;;;;;;-1.29;73.47;101930.06;5082733;28;20426;-71
2022/12/18 00:21:26;;;;;;;55.58;30.40;;;;;;;-1.37;73.44;101935.69;5100982;28;20040;-73
2022/12/18 00:23:55;;;;;;;61.83;31.35;;;;;;;-1.16;73.06;101937.38;5076656;28;20056;-73
2022/12/18 00:26:30;;;;;;;61.20;32.30;;;;;;;-1.19;72.66;101933.19;5077454;28;20056;-74
2022/12/18 00:29:04;;;;;;;56.50;30.98;;;;;;;-1.10;72.19;101933.84;5096495;28;20044;-73
2022/12/18 00:31:32;;;;;;;58.35;30.30;;;;;;;-1.21;72.55;101938.00;5090538;28;20058;-73
2022/12/18 00:34:01;;;;;;;58.80;30.50;;;;;;;-1.35;72.13;101935.47;5114419;28;20051;-74
2022/12/18 00:36:31;;;;;;;57.95;31.20;;;;;;;-1.18;72.32;101928.63;5068495;28;20293;-73
2022/12/18 00:39:00;;;;;;;58.95;29.77;;;;;;;-1.23;72.03;101933.81;5077236;28;20051;-74
2022/12/18 00:44:16;;;;;;;56.10;29.73;;;;;;;-1.13;71.99;101945.06;5094262;28;20047;-74
2022/12/18 00:46:45;;;;;;;58.17;29.15;;;;;;;-1.01;72.28;101946.09;5104333;28;20044;-72
2022/12/18 00:49:15;;;;;;;53.13;28.50;;;;;;;-0.82;70.99;101947.16;5059908;28;20051;-73
2022/12/18 00:51:43;;;;;;;52.72;28.95;;;;;;;-0.99;70.89;101945.91;5080008;28;20063;-75
2022/12/18 00:54:11;;;;;;;56.13;30.23;;;;;;;-1.05;70.23;101935.91;5073322;28;20416;-72
2022/12/18 00:56:39;;;;;;;56.22;29.42;;;;;;;-1.03;70.31;101931.13;5080359;28;20043;-65
2022/12/18 00:59:16;;;;;;;56.53;29.90;;;;;;;-1.09;70.46;101930.09;5051897;28;20064;-65
2022/12/18 01:01:47;;;;;;;60.60;30.67;;;;;;;-1.05;70.69;101931.34;5072641;28;20055;-66
2022/12/18 01:04:15;;;;;;;53.72;28.98;;;;;;;-1.10;70.22;101925.75;5078251;28;20036;-64
2022/12/18 01:06:45;;;;;;;;;;;;;;;-0.95;70.32;101925.50;5075519;28;20056;-64
2022/12/18 01:09:12;;;;;;;53.97;30.02;;;;;;;-0.72;70.34;101925.91;5074473;28;19927;-66
2022/12/18 01:11:40;;;;;;;56.85;30.42;;;;;;;-0.94;69.92;101919.09;5075268;28;20068;-65
2022/12/18 01:14:08;;;;;;;54.55;30.63;;;;;;;-1.01;70.40;101924.47;5079631;28;20055;-64
2022/12/18 01:16:37;;;;;;;56.75;31.95;;;;;;;-0.93;70.00;101916.16;5078804;28;20056;-66
2022/12/18 01:19:05;;;;;;;64.57;29.95;;;;;;;-1.02;69.71;101916.56;5081942;28;20394;-64
2022/12/18 01:21:33;;;;;;;55.85;30.58;;;;;;;-1.33;71.08;101909.94;5079923;28;20040;-66
2022/12/18 01:24:04;;;;;;;58.05;30.77;;;;;;;-1.34;71.37;101912.81;5060917;28;20052;-65
2022/12/18 01:26:32;;;;;;;59.05;30.15;;;;;;;-1.19;70.79;101913.47;5076374;28;20158;-66
2022/12/18 01:28:59;;;;;;;58.47;31.85;;;;;;;-1.40;70.73;101914.50;5079428;28;20059;-64
2022/12/18 01:31:29;;;;;;;57.58;31.65;;;;;;;-1.04;71.35;101922.19;5079067;28;20055;-65
2022/12/18 01:33:58;;;;;;;60.13;32.97;;;;;;;-0.98;69.66;101915.13;5094449;28;20070;-65
2022/12/18 01:36:30;;;;;;;56.28;30.52;;;;;;;-1.22;70.76;101922.81;5078079;28;20048;-64
2022/12/18 01:39:02;;;;;;;56.25;30.90;;;;;;;-1.38;70.68;101916.97;5042888;28;20502;-65
2022/12/18 01:42:17;;;;;;;58.55;31.88;;;;;;;-1.10;69.78;101914.94;5060125;28;20056;-65
2022/12/18 01:44:57;;;;;;;57.83;32.72;;;;;;;-1.38;70.38;101914.28;5057231;28;20263;-65
2022/12/18 01:47:40;;;;;;;55.92;30.45;;;;;;;-1.27;70.33;101908.25;5077699;28;20047;-65
2022/12/18 01:50:16;;;;;;;57.72;31.90;;;;;;;-1.09;69.77;101908.47;5075845;28;20052;-64
2022/12/18 01:52:52;;;;;;;54.67;30.98;;;;;;;-1.25;70.01;101903.47;5052041;28;20048;-66
2022/12/18 01:55:23;;;;;;;54.83;29.75;;;;;;;-1.37;69.77;101900.56;5074539;28;20044;-72
2022/12/18 01:57:54;;;;;;;56.80;30.77;;;;;;;-1.53;70.96;101897.41;5040321;28;20072;-73
2022/12/18 02:00:23;;;;;;;59.60;31.17;;;;;;;-1.41;70.72;101901.16;5058684;28;20056;-73
2022/12/18 02:02:51;;;;;;;55.25;32.45;;;;;;;-1.51;70.88;101892.63;5077458;28;20045;-73
2022/12/18 02:05:45;;;;;;;55.63;29.80;;;;;;;-1.42;70.37;101888.69;5080881;28;20048;-73
2022/12/18 02:08:13;;;;;;;54.03;30.02;;;;;;;-1.47;70.82;101893.91;5075767;28;20055;-72
2022/12/18 02:11:09;;;;;;;53.80;30.58;;;;;;;-1.91;71.33;101886.31;5076101;28;20051;-72
2022/12/18 02:13:50;;;;;;;55.05;30.83;;;;;;;-1.61;72.23;101876.84;5073183;28;20056;-74
2022/12/18 02:16:40;;;;;;;52.80;29.98;;;;;;;-1.69;71.78;101877.03;5075825;28;20560;-75
2022/12/18 02:19:42;;;;;;;58.88;31.17;;;;;;;-1.85;71.89;101879.28;5068087;28;20047;-74
2022/12/18 02:22:30;;;;;;;54.25;29.17;;;;;;;-1.84;71.93;101878.22;5061616;28;20059;-72
2022/12/18 02:25:20;;;;;;;52.63;29.90;;;;;;;-1.88;72.14;101869.72;5076489;28;20056;-72
2022/12/18 02:27:49;;;;;;;58.58;30.35;;;;;;;-1.65;70.99;101864.78;5076706;28;20053;-72
2022/12/18 02:30:17;;;;;;;54.60;29.83;;;;;;;-1.93;72.44;101861.41;5073709;28;20056;-73
2022/12/18 02:32:49;;;;;;;52.03;29.88;;;;;;;-2.01;72.20;101856.19;5065451;28;20053;-72
2022/12/18 02:35:22;;;;;;;52.00;29.13;;;;;;;-1.85;72.01;101863.09;5086116;28;20553;-73
2022/12/18 02:37:53;;;;;;;58.13;29.27;;;;;;;-1.70;72.58;101861.88;5059674;28;20057;-73
2022/12/18 02:40:22;;;;;;;57.23;29.93;;;;;;;-1.78;72.23;101856.63;5075577;28;20044;-73
2022/12/18 02:42:50;;;;;;;55.33;30.63;;;;;;;-1.63;71.87;101860.00;5042629;28;20052;-73
2022/12/18 02:45:18;;;;;;;58.27;30.40;;;;;;;-1.82;71.56;101858.09;5055208;28;20063;-73
2022/12/18 02:47:48;;;;;;;54.25;28.25;;;;;;;-1.74;72.04;101857.06;5077053;28;20051;-73
2022/12/18 02:50:30;;;;;;;56.03;30.60;;;;;;;-1.73;71.58;101854.19;5095668;28;20044;-73
2022/12/18 02:53:07;;;;;;;54.67;29.48;;;;;;;-1.60;71.54;101848.78;5079939;28;20043;-73
2022/12/18 02:55:58;;;;;;;50.75;28.02;;;;;;;-1.50;71.41;101840.28;5100471;28;20169;-72
2022/12/18 02:58:34;;;;;;;52.85;28.33;;;;;;;-1.62;70.99;101836.53;5097899;28;20059;-72
2022/12/18 03:01:32;;;;;;;51.33;28.95;;;;;;;-1.85;71.96;101833.38;5078604;28;20063;-73
2022/12/18 03:04:06;;;;;;;50.42;27.42;;;;;;;-1.66;71.59;101835.28;5084584;28;20052;-73
2022/12/18 03:06:40;;;;;;;52.22;28.52;;;;;;;-1.83;72.26;101831.31;5078689;28;20044;-73
2022/12/18 03:09:17;;;;;;;52.28;28.20;;;;;;;-1.89;72.48;101826.72;5066732;28;20051;-73
2022/12/18 03:14:38;;;;;;;54.88;31.00;;;;;;;-2.19;73.21;101838.88;5080830;28;20060;-73
2022/12/18 03:17:11;;;;;;;52.92;29.83;;;;;;;-2.14;73.67;101837.25;5073756;28;20047;-64
2022/12/18 03:19:40;;;;;;;52.58;30.23;;;;;;;-2.24;73.63;101836.81;5096629;28;20055;-64
2022/12/18 03:22:08;;;;;;;55.88;31.38;;;;;;;-1.96;73.72;101840.22;5081409;28;20040;-64
2022/12/18 03:24:45;;;;;;;53.10;28.75;;;;;;;-2.00;72.62;101849.75;5045579;28;20052;-65
2022/12/18 03:27:15;;;;;;;52.78;30.08;;;;;;;-2.19;73.17;101852.38;5074361;28;20513;-65
2022/12/18 03:29:51;;;;;;;58.80;31.63;;;;;;;-2.08;73.75;101849.09;5058479;28;20067;-64
2022/12/18 03:32:30;;;;;;;54.42;30.95;;;;;;;-1.87;73.34;101848.94;5097144;28;20032;-66
2022/12/18 03:35:03;;;;;;;58.90;31.02;;;;;;;-1.79;72.21;101846.03;5060223;28;20047;-64
2022/12/18 03:37:35;;;;;;;55.85;30.27;;;;;;;-1.80;72.45;101852.50;5091338;28;20414;-64
2022/12/18 03:40:03;;;;;;;57.90;29.70;;;;;;;-1.93;72.51;101849.75;5086062;28;20066;-64
2022/12/18 03:42:49;;;;;;;54.53;30.35;;;;;;;-1.86;72.66;101845.19;5078883;28;20056;-65
2022/12/18 03:45:25;;;;;;;56.63;30.25;;;;;;;-2.07;73.14;101839.94;5058752;28;20051;-64
2022/12/18 03:48:10;;;;;;;52.92;29.92;;;;;;;-2.05;73.23;101837.88;5061456;28;20486;-65
2022/12/18 03:50:57;;;;;;;56.90;31.63;;;;;;;-2.06;73.24;101833.53;5079708;28;20048;-65
2022/12/18 03:53:36;;;;;;;55.97;31.08;;;;;;;-2.04;73.46;101828.78;5052392;28;20047;-65
2022/12/18 03:56:06;;;;;;;55.17;30.95;;;;;;;-2.27;73.89;101823.72;5072048;28;20052;-64
2022/12/18 03:58:40;;;;;;;53.83;31.10;;;;;;;-2.10;73.96;101833.13;5062676;28;20418;-65
2022/12/18 04:01:19;;;;;;;54.88;30.42;;;;;;;-2.16;73.30;101822.31;5062865;28;20498;-65
2022/12/18 04:03:49;;;;;;;55.40;31.67;;;;;;;-2.18;73.58;101817.13;5044941;28;20085;-64
2022/12/18 04:06:19;;;;;;;55.15;29.58;;;;;;;-2.14;74.10;101815.66;5055603;28;20049;-65
2022/12/18 04:08:47;;;;;;;54.80;31.10;;;;;;;-1.84;73.52;101818.84;5110087;28;20047;-65
2022/12/18 04:11:19;;;;;;;54.53;30.98;;;;;;;-2.24;72.96;101811.69;5089131;28;20494;-65
2022/12/18 04:13:48;;;;;;;58.15;32.42;;;;;;;-2.16;73.92;101806.94;5089358;28;20070;-65
2022/12/18 04:16:22;;;;;;;54.20;30.92;;;;;;;-2.28;73.54;101807.75;5082903;28;20453;-66
2022/12/18 04:18:53;;;;;;;56.00;30.65;;;;;;;-2.27;74.69;101819.16;5061375;28;20078;-65
2022/12/18 04:21:23;;;;;;;51.80;29.55;;;;;;;-2.23;74.16;101821.47;5092083;28;20410;-66
2022/12/18 04:23:52;;;;;;;57.47;31.25;;;;;;;-2.32;74.47;101820.81;5077759;28;20125;-65
2022/12/18 04:26:22;;;;;;;55.97;30.65;;;;;;;-2.18;74.04;101816.28;5083895;28;20048;-65
2022/12/18 04:29:15;;;;;;;56.08;31.23;;;;;;;-1.91;73.14;101812.59;5073578;28;20052;-65
2022/12/18 04:31:43;;;;;;;54.58;30.52;;;;;;;-1.86;73.04;101810.09;5076880;28;20192;-66
2022/12/18 04:34:11;;;;;;;52.17;30.75;;;;;;;-1.84;72.70;101810.72;5076814;28;20048;-65
2022/12/18 04:36:45;;;;;;;53.40;30.30;;;;;;;-1.61;72.82;101801.22;5100723;28;20044;-65
2022/12/18 04:39:13;;;;;;;55.63;29.90;;;;;;;-1.88;72.25;101804.91;5076006;28;20052;-65
2022/12/18 04:41:44;;;;;;;54.22;30.75;;;;;;;-1.79;72.24;101816.34;5100688;28;20051;-65
2022/12/18 04:44:13;;;;;;;53.00;30.45;;;;;;;-2.00;72.92;101825.44;5077834;28;20039;-65
2022/12/18 04:46:41;;;;;;;55.65;30.42;;;;;;;-1.81;72.57;101832.75;5099959;28;20056;-65
2022/12/18 04:49:10;;;;;;;54.60;30.25;;;;;;;-1.74;72.54;101827.34;5094743;28;20056;-65
2022/12/18 04:51:37;;;;;;;50.53;29.13;;;;;;;-1.91;72.62;101834.19;5076346;28;20051;-65
2022/12/18 04:54:05;;;;;;;52.85;29.52;;;;;;;-2.16;72.95;101823.13;5112627;28;20050;-65
2022/12/18 04:56:32;;;;;;;53.50;29.05;;;;;;;-1.91;72.95;101818.00;5071807;28;20048;-65
2022/12/18 04:59:00;;;;;;;55.00;30.17;;;;;;;-2.10;72.74;101825.03;5096764;28;20051;-64
2022/12/18 05:01:27;;;;;;;55.28;30.92;;;;;;;-2.27;73.56;101816.44;5099262;28;20051;-64
2022/12/18 05:04:01;;;;;;;54.88;31.17;;;;;;;-2.48;73.67;101821.16;5077644;28;20055;-64
2022/12/18 05:06:29;;;;;;;56.97;32.17;;;;;;;-2.59;74.66;101825.25;5077196;28;20047;-64
2022/12/18 05:08:57;;;;;;;55.00;30.08;;;;;;;-2.37;75.10;101828.66;5079759;28;20051;-64
2022/12/18 05:11:24;;;;;;;52.67;29.40;;;;;;;-2.30;74.16;101833.03;5095888;28;20059;-64
2022/12/18 05:13:51;;;;;;;53.40;30.35;;;;;;;-2.20;73.96;101839.94;5094223;28;20044;-65
2022/12/18 05:16:24;;;;;;;53.33;30.55;;;;;;;-2.28;73.89;101843.63;5085624;28;20078;-64
2022/12/18 05:18:53;;;;;;;58.25;31.55;;;;;;;-2.37;74.26;101834.88;5083499;28;20039;-64
2022/12/18 05:21:21;;;;;;;56.95;31.02;;;;;;;-2.16;73.86;101836.63;5070592;28;20051;-64
2022/12/18 05:23:48;;;;;;;52.58;29.75;;;;;;;-2.20;73.69;101832.69;5063914;28;20059;-66
2022/12/18 05:26:17;;;;;;;59.67;32.65;;;;;;;-2.21;73.46;101840.97;5094831;28;20044;-64
2022/12/18 05:28:45;;;;;;;59.25;31.27;;;;;;;-2.09;73.72;101852.84;5061594;28;20048;-67
2022/12/18 05:31:13;;;;;;;56.67;31.13;;;;;;;-2.13;73.19;101852.44;5092883;28;20571;-65
2022/12/18 05:33:41;;;;;;;56.47;30.92;;;;;;;-2.26;73.29;101855.06;5115529;28;20050;-65
2022/12/18 05:36:09;;;;;;;54.13;29.80;;;;;;;-2.39;73.47;101861.22;5106558;28;20039;-64
2022/12/18 05:38:38;;;;;;;56.70;30.65;;;;;;;-2.30;74.34;101851.94;5088930;28;20044;-64
2022/12/18 05:41:08;;;;;;;54.50;30.17;;;;;;;-2.18;73.48;101851.34;5093025;28;20059;-64
2022/12/18 05:43:37;;;;;;;54.77;30.90;;;;;;;-2.47;73.64;101853.31;5094190;28;20036;-65
2022/12/18 05:46:12;;;;;;;55.65;30.27;;;;;;;-2.38;73.84;101845.88;5090260;28;20052;-64
2022/12/18 05:48:41;;;;;;;56.05;31.23;;;;;;;-2.46;73.79;101840.69;5065719;28;20047;-64
2022/12/18 05:51:14;;;;;;;52.17;29.80;;;;;;;-2.18;73.76;101835.16;5106676;28;20096;-64
2022/12/18 05:53:42;;;;;;;51.88;28.98;;;;;;;-2.24;73.49;101835.97;5093560;28;20048;-64
2022/12/18 05:56:12;;;;;;;53.50;28.83;;;;;;;-2.02;73.39;101832.09;5105449;28;20044;-64
2022/12/18 05:58:40;;;;;;;50.30;29.85;;;;;;;-2.04;73.28;101820.69;5094265;28;20060;-64
2022/12/18 06:01:14;;;;;;;52.15;28.73;;;;;;;-2.03;72.62;101823.16;5107091;28;20063;-64
2022/12/18 06:03:42;;;;;;;53.25;30.38;;;;;;;-2.13;72.30;101814.63;5099015;28;20458;-64
2022/12/18 06:06:17;;;;;;;55.40;29.70;;;;;;;-2.19;73.44;101809.19;5109685;28;20426;-64
2022/12/18 06:08:45;;;;;;;50.33;28.60;;;;;;;-2.33;73.56;101808.34;5108235;28;20494;-64
2022/12/18 06:11:15;;;;;;;52.30;30.70;;;;;;;-2.31;73.05;101812.50;5052606;28;20048;-64
2022/12/18 06:13:42;;;;;;;;;;;;;;;-2.13;72.89;101811.94;5097090;28;20040;-65
2022/12/18 06:16:10;;;;;;;52.15;29.48;;;;;;;-2.33;72.51;101814.56;5085637;28;19935;-64
2022/12/18 06:18:38;;;;;;;58.28;29.88;;;;;;;-2.42;73.77;101812.25;5098424;28;20052;-64
2022/12/18 06:21:05;;;;;;;51.97;27.88;;;;;;;-2.37;73.77;101813.31;5096275;28;20048;-64
2022/12/18 06:23:33;;;;;;;55.40;28.98;;;;;;;-2.54;74.09;101814.69;5063538;28;20048;-64
2022/12/18 06:26:08;;;;;;;53.65;29.63;;;;;;;-2.67;75.18;101811.94;5092454;28;20044;-64
2022/12/18 06:28:36;;;;;;;54.20;28.95;;;;;;;-2.37;74.49;101810.59;5116823;28;20043;-64
2022/12/18 06:31:04;;;;;;;52.92;28.75;;;;;;;-2.19;73.83;101817.28;5108508;28;20052;-63
2022/12/18 06:33:32;;;;;;;50.17;28.97;;;;;;;-2.13;73.11;101820.03;5107327;28;20047;-64
2022/12/18 06:36:04;;;;;;;51.78;27.83;;;;;;;-2.15;72.76;101815.88;5098043;28;21449;-63
2022/12/18 06:38:33;;;;;;;49.40;27.73;;;;;;;-2.21;72.85;101816.69;5079627;28;20056;-64
2022/12/18 06:41:09;;;;;;;51.33;28.10;;;;;;;-2.19;73.06;101818.13;5062375;28;20053;-64
2022/12/18 06:43:37;;;;;;;48.83;28.08;;;;;;;-2.35;73.38;101807.69;5082840;28;20405;-63
2022/12/18 06:46:05;;;;;;;55.28;29.42;;;;;;;-2.38;73.21;101808.97;5073428;28;20120;-64
2022/12/18 06:48:33;;;;;;;51.45;28.75;;;;;;;-2.60;73.74;101810.09;5096119;28;20067;-63
2022/12/18 06:51:01;;;;;;;52.63;29.00;;;;;;;-2.37;73.36;101809.75;5097182;28;20514;-65
2022/12/18 06:53:29;;;;;;;51.33;28.52;;;;;;;-2.34;73.03;101807.50;5091240;28;20509;-65
2022/12/18 06:56:04;;;;;;;50.95;29.23;;;;;;;-2.55;73.26;101796.03;5075440;28;20052;-64
2022/12/18 06:58:38;;;;;;;50.50;28.70;;;;;;;-2.56;73.60;101791.66;5107784;28;20051;-64
2022/12/18 07:01:07;;;;;;;51.17;28.13;;;;;;;-2.77;73.55;101806.06;5088503;28;20055;-64
2022/12/18 07:03:34;;;;;;;54.40;28.60;;;;;;;-2.63;74.34;101783.53;5090724;28;20055;-63
2022/12/18 07:06:02;;;;;;;52.20;28.92;;;;;;;-2.28;73.48;101781.56;5110356;28;20055;-64
2022/12/18 07:08:30;;;;;;;52.75;29.38;;;;;;;-2.33;72.81;101782.19;5097457;28;20070;-64
2022/12/18 07:10:58;;;;;;;54.92;27.25;;;;;;;-2.42;72.60;101790.66;5096020;28;20044;-65
2022/12/18 07:13:26;;;;;;;53.28;29.58;;;;;;;-2.56;73.49;101786.25;5098237;28;20040;-64
2022/12/18 07:15:54;;;;;;;50.00;27.85;;;;;;;-2.61;73.49;101786.88;5095723;28;20048;-65
2022/12/18 07:18:21;;;;;;;52.40;28.58;;;;;;;-2.57;73.66;101788.13;5078147;28;20074;-64
2022/12/18 07:20:49;;;;;;;54.08;29.25;;;;;;;-2.49;73.01;101774.47;5095792;28;20055;-64
2022/12/18 07:23:16;;;;;;;49.70;29.85;;;;;;;-2.30;73.14;101775.53;5079410;28;20055;-65
2022/12/18 07:25:43;;;;;;;52.28;29.50;;;;;;;-2.30;72.96;101789.88;5082068;28;20051;-64
2022/12/18 07:28:12;;;;;;;52.90;28.73;;;;;;;-2.16;71.53;101779.94;5065564;28;20482;-64
2022/12/18 07:30:43;;;;;;;49.63;27.02;;;;;;;-2.29;71.81;101777.22;5071709;28;20052;-63
2022/12/18 07:33:12;;;;;;;55.20;29.55;;;;;;;-2.49;73.02;101787.09;5097224;28;20048;-65
2022/12/18 07:35:39;;;;;;;50.67;28.55;;;;;;;-2.48;72.84;101788.78;5094051;28;20486;-65
2022/12/18 07:38:07;;;;;;;49.42;29.23;;;;;;;-2.68;71.92;101788.72;5089189;28;20051;-65
2022/12/18 07:40:34;;;;;;;47.83;28.95;;;;;;;-2.58;73.22;101794.53;5093159;28;20044;-64
2022/12/18 07:43:01;;;;;;;51.20;29.20;;;;;;;-2.65;73.10;101791.00;5097685;28;20048;-63
2022/12/18 07:45:29;;;;;;;49.97;28.90;;;;;;;-2.75;73.15;101814.81;5106579;28;20051;-64
2022/12/18 07:47:56;;;;;;;51.85;27.83;;;;;;;-2.28;73.00;101811.25;5084543;28;20048;-63
2022/12/18 07:50:24;;;;;;;53.13;29.95;;;;;;;-2.23;71.98;101813.38;5074946;28;20052;-63
2022/12/18 07:52:51;;;;;;;55.67;28.95;;;;;;;-2.34;71.90;101812.09;5096028;28;20040;-63
2022/12/18 07:55:19;;;;;;;48.53;28.73;;;;;;;-2.43;72.08;101802.50;5109887;28;20075;-64
2022/12/18 07:57:46;;;;;;;50.28;28.33;;;;;;;-2.35;72.19;101803.16;5106625;28;20052;-64
2022/12/18 08:00:21;;;;;;;55.85;28.85;;;;;;;-2.50;72.51;101796.25;5089736;28;20053;-64
2022/12/18 08:02:49;;;;;;;51.05;27.38;;;;;;;-2.62;73.00;101797.88;5076932;28;20047;-65
2022/12/18 08:05:17;;;;;;;52.25;29.33;;;;;;;-2.31;72.62;101799.03;5077819;28;20062;-64
2022/12/18 08:07:44;;;;;;;50.10;27.42;;;;;;;-2.38;72.00;101790.06;5060403;28;20056;-65
2022/12/18 08:10:12;;;;;;;54.15;30.05;;;;;;;-2.37;72.09;101791.72;5077313;28;20055;-65
2022/12/18 08:12:40;;;;;;;53.55;29.08;;;;;;;-2.28;71.38;101787.81;5096027;28;20043;-64
2022/12/18 08:15:08;;;;;;;51.75;28.85;;;;;;;-2.41;72.05;101781.56;5094505;28;20052;-65
2022/12/18 08:17:35;;;;;;;54.40;29.35;;;;;;;-2.38;71.90;101798.16;5096414;28;20055;-64
2022/12/18 08:20:03;;;;;;;53.88;29.13;;;;;;;-2.49;72.31;101806.84;5076885;28;20051;-64
2022/12/18 08:22:34;;;;;;;52.73;31.37;;;;;;;-2.14;71.92;101802.16;5074729;28;20048;-64
2022/12/18 08:25:05;;;;;;;54.70;29.27;;;;;;;-2.37;72.15;101805.22;5071128;28;20652;-65
2022/12/18 08:27:33;;;;;;;58.08;29.98;;;;;;;-2.44;71.58;101808.94;5071730;28;20503;-66
2022/12/18 08:30:01;;;;;;;60.80;31.02;;;;;;;-2.49;72.52;101812.22;5078606;28;20407;-66
2022/12/18 08:32:29;;;;;;;52.33;28.77;;;;;;;-2.41;71.80;101805.84;5106311;28;20052;-66
2022/12/18 08:34:56;;;;;;;54.50;30.15;;;;;;;-2.18;72.23;101810.88;5098472;28;20398;-65
2022/12/18 08:37:23;;;;;;;57.72;30.70;;;;;;;-2.33;71.53;101803.78;5099610;28;20499;-65
2022/12/18 08:39:51;;;;;;;50.97;28.33;;;;;;;-2.32;71.79;101816.22;5111746;28;20411;-65
2022/12/18 08:45:05;;;;;;;54.28;30.40;;;;;;;-2.17;71.71;101815.22;5072070;28;20036;-64
2022/12/18 08:47:32;;;;;;;54.08;29.65;;;;;;;-2.16;71.31;101825.00;5076971;28;20048;-66
2022/12/18 08:50:00;;;;;;;52.22;28.80;;;;;;;-2.08;70.83;101827.50;5060134;28;20090;-65
2022/12/18 08:52:28;;;;;;;51.03;28.55;;;;;;;-1.92;70.87;101830.69;5071354;28;20458;-64
2022/12/18 08:54:55;;;;;;;52.85;29.52;;;;;;;-2.05;70.87;101837.88;5108575;28;20043;-68
2022/12/18 08:57:22;;;;;;;58.03;30.90;;;;;;;-1.95;70.14;101844.56;5063164;28;20158;-65
2022/12/18 08:59:50;;;;;;;53.17;29.00;;;;;;;-1.68;70.13;101835.50;5076506;28;20054;-66
2022/12/18 09:02:18;;;;;;;51.00;29.27;;;;;;;-1.66;69.66;101822.63;5093095;28;20043;-66
2022/12/18 09:04:49;;;;;;;54.58;29.17;;;;;;;-1.84;70.12;101826.94;5078077;28;20048;-69
2022/12/18 09:07:23;;;;;;;50.55;28.67;;;;;;;-1.91;70.05;101818.81;5079308;28;20503;-62
2022/12/18 09:09:51;;;;;;;54.22;29.38;;;;;;;-1.82;70.59;101816.75;5091968;28;20052;-62
2022/12/18 09:12:18;;;;;;;54.45;28.77;;;;;;;-1.86;70.66;101812.81;5092479;28;20063;-64
2022/12/18 09:14:46;;;;;;;50.50;28.15;;;;;;;-2.11;70.61;101817.94;5058572;28;20067;-64
2022/12/18 09:17:16;;;;;;;51.20;27.77;;;;;;;-1.94;71.22;101821.09;5107470;28;20110;-64
2022/12/18 09:19:44;;;;;;;53.20;28.73;;;;;;;-1.91;71.32;101818.81;5113135;28;20048;-63
2022/12/18 09:22:11;;;;;;;53.08;28.58;;;;;;;-1.88;70.78;101821.13;5090046;28;20052;-63
2022/12/18 09:24:39;;;;;;;53.67;28.60;;;;;;;-1.68;70.96;101821.97;5070356;28;20054;-64
2022/12/18 09:27:06;;;;;;;52.38;29.20;;;;;;;-1.74;70.75;101822.78;5099634;28;20063;-63
2022/12/18 09:29:34;;;;;;;50.10;27.58;;;;;;;-1.78;70.65;101826.13;5093898;28;20052;-66
2022/12/18 09:32:02;;;;;;;53.03;28.75;;;;;;;-1.60;70.70;101812.81;5053728;28;20061;-68
2022/12/18 09:34:29;;;;;;;53.30;29.80;;;;;;;-1.44;70.73;101812.41;5075796;28;20403;-62
2022/12/18 09:36:57;;;;;;;50.78;28.75;;;;;;;-1.63;69.89;101806.00;5093435;28;20057;-63
2022/12/18 09:39:25;;;;;;;49.85;27.92;;;;;;;-1.59;70.76;101801.00;5085944;28;20267;-62
2022/12/18 09:41:55;;;;;;;50.83;28.27;;;;;;;-1.61;70.26;101811.19;5092754;28;20044;-63
2022/12/18 09:44:29;;;;;;;53.20;27.85;;;;;;;-1.45;70.68;101813.47;5095752;28;20051;-63
2022/12/18 09:47:20;;;;;;;50.90;27.90;;;;;;;-1.39;69.75;101818.03;5061175;28;20063;-62
2022/12/18 09:49:51;;;;;;;51.95;29.05;;;;;;;-1.51;70.01;101817.84;5057004;28;20073;-62
2022/12/18 09:52:26;;;;;;;50.90;28.02;;;;;;;-1.68;70.21;101813.03;5064708;28;20059;-62
2022/12/18 09:55:16;;;;;;;51.42;28.98;;;;;;;-1.53;70.58;101801.00;5095954;28;20051;-63
2022/12/18 09:58:19;;;;;;;48.05;27.13;;;;;;;-1.28;70.89;101801.19;5108399;27;20045;-62
2022/12/18 10:00:46;;;;;;;53.65;28.27;;;;;;;-1.40;69.70;101797.47;5031890;28;20056;-64
2022/12/18 10:03:15;;;;;;;52.85;28.85;;;;;;;-1.22;69.67;101801.19;5076190;28;20040;-61
2022/12/18 10:06:04;;;;;;;48.53;28.05;;;;;;;-1.26;69.87;101797.25;5088051;28;20045;-64
2022/12/18 10:08:50;;;;;;;50.42;28.02;;;;;;;-1.41;69.57;101802.03;5076094;28;20068;-63
2022/12/18 10:12:12;;;;;;;54.58;29.10;;;;;;;-1.25;70.19;101796.19;5075473;28;20059;-63
2022/12/18 10:14:43;;;;;;;48.38;27.73;;;;;;;1.02;65.75;101794.25;5031137;28;20060;-65
2022/12/18 10:17:55;;;;;;;53.70;29.25;;;;;;;0.26;65.80;101798.28;5072366;28;20112;-70
2022/12/18 10:20:42;;;;;;;52.38;28.52;;;;;;;-0.24;66.96;101800.03;5017200;28;20100;-72
2022/12/18 10:23:31;;;;;;;51.50;28.10;;;;;;;-0.59;67.25;101787.91;5058656;28;20047;-69
2022/12/18 10:26:03;;;;;;;48.90;28.23;;;;;;;-0.67;68.79;101782.75;5075674;28;20064;-70
2022/12/18 10:28:32;;;;;;;50.42;27.88;;;;;;;-0.71;68.44;101782.34;5077852;28;20048;-71
2022/12/18 10:31:05;;;;;;;50.70;27.88;;;;;;;-0.39;68.10;101775.97;5075977;28;20120;-69
2022/12/18 10:33:33;;;;;;;51.45;28.00;;;;;;;-0.44;68.23;101775.78;5077329;28;20052;-69
2022/12/18 10:36:00;;;;;;;49.50;27.52;;;;;;;-0.87;69.47;101777.38;5076384;28;20052;-70
2022/12/18 10:38:30;;;;;;;51.28;29.02;;;;;;;-0.42;69.13;101780.97;5081081;28;20067;-71
2022/12/18 10:41:09;;;;;;;53.03;29.20;;;;;;;-0.34;68.73;101778.84;5108627;28;20040;-69
2022/12/18 10:43:39;;;;;;;52.70;27.73;;;;;;;-0.31;68.90;101772.16;5075474;28;20486;-70
2022/12/18 10:46:09;;;;;;;50.37;29.07;;;;;;;-0.16;67.89;101778.94;5063356;28;20049;-70
2022/12/18 10:48:53;;;;;;;50.85;28.98;;;;;;;-0.37;68.08;101775.75;5089615;28;20486;-67
2022/12/18 10:51:26;;;;;;;49.50;27.73;;;;;;;-0.39;68.18;101772.41;5095082;28;20048;-64
2022/12/18 10:54:01;;;;;;;56.55;28.85;;;;;;;-0.33;68.11;101764.25;5097205;28;20358;-67
2022/12/18 10:56:33;;;;;;;51.65;28.20;;;;;;;-0.22;68.38;101766.28;5096915;28;20044;-64
2022/12/18 10:59:06;;;;;;;51.05;27.67;;;;;;;-0.10;68.91;101759.13;5097055;28;20414;-69
2022/12/18 11:01:53;;;;;;;51.00;28.95;;;;;;;-0.28;68.99;101760.91;5097127;28;20044;-66
2022/12/18 11:04:24;;;;;;;54.47;28.67;;;;;;;-0.34;69.32;101759.91;5079075;28;20056;-68
2022/12/18 11:07:01;;;;;;;54.35;29.20;;;;;;;0.02;68.11;101764.66;5078281;28;20528;-72
2022/12/18 11:09:33;;;;;;;50.20;27.45;;;;;;;0.06;67.81;101755.06;5095780;28;20044;-70
2022/12/18 11:12:03;;;;;;;51.13;28.42;;;;;;;-0.10;67.97;101752.88;5094726;28;20048;-71
2022/12/18 11:14:51;;;;;;;49.42;26.80;;;;;;;-0.31;68.20;101761.34;5081004;28;20045;-71
2022/12/18 11:17:21;;;;;;;53.33;28.88;;;;;;;-0.31;68.89;101766.75;5075907;28;20052;-69
2022/12/18 11:20:31;;;;;;;54.40;28.10;;;;;;;-0.07;68.10;101747.84;5078700;28;20084;-69
2022/12/18 11:23:10;;;;;;;47.47;26.55;;;;;;;-0.06;67.70;101748.69;5074165;28;20071;-70
2022/12/18 11:25:38;;;;;;;56.13;30.27;;;;;;;0.15;68.33;101745.63;5077261;28;20044;-71
2022/12/18 11:28:33;;;;;;;56.88;30.63;;;;;;;0.23;67.32;101739.13;5111641;28;20052;-70
2022/12/18 11:31:20;;;;;;;47.38;26.10;;;;;;;0.39;67.19;101731.25;5095565;28;20056;-69
2022/12/18 11:34:00;;;;;;;49.85;28.55;;;;;;;0.46;67.24;101725.75;5096439;28;20067;-70
2022/12/18 11:36:47;;;;;;;;;;;;;;;0.53;66.28;101726.53;5110280;28;20062;-71
2022/12/18 11:39:30;;;;;;;53.53;27.63;;;;;;;0.40;67.57;101711.22;5076852;28;19919;-70
2022/12/18 11:42:11;;;;;;;50.35;27.55;;;;;;;0.49;67.25;101709.88;5090725;28;20048;-63